createdAt,value
2017-10-23T00:02:05.771Z,8.90
2017-10-23T00:12:15.541Z,8.90
2017-10-23T00:32:44.242Z,8.90
2017-10-23T00:53:15.324Z,8.90
2017-10-23T01:13:41.599Z,9.00
2017-10-23T01:23:51.928Z,9.00
2017-10-23T01:34:07.063Z,9.00
2017-10-23T01:54:36.324Z,9.00
2017-10-23T02:04:50.500Z,9.00
2017-10-23T02:09:53.887Z,9.00
2017-10-23T02:30:24.330Z,9.00
2017-10-23T03:01:05.325Z,9.10
2017-10-23T03:31:51.661Z,9.10
2017-10-23T04:34:04.858Z,9.00
2017-10-23T04:39:27.570Z,9.00
2017-10-23T06:13:36.758Z,8.80
2017-10-23T07:45:32.062Z,9.00
2017-10-23T07:50:34.640Z,9.00
2017-10-23T07:55:37.251Z,9.00
2017-10-23T08:00:39.835Z,9.10
2017-10-23T08:05:42.672Z,9.10
2017-10-23T08:10:45.241Z,9.10
2017-10-23T08:15:48.123Z,9.20
2017-10-23T08:20:50.736Z,9.20
2017-10-23T08:25:53.345Z,9.20
2017-10-23T08:36:33.878Z,9.30
2017-10-23T08:58:36.744Z,9.50
2017-10-23T09:03:39.383Z,9.60
2017-10-23T09:08:42.794Z,9.80
2017-10-23T09:13:45.453Z,9.70
2017-10-23T09:29:52.431Z,10.10
2017-10-23T09:34:55.048Z,10.10
2017-10-23T09:39:57.607Z,10.20
2017-10-23T09:45:05.965Z,10.20
2017-10-23T09:50:08.598Z,10.20
2017-10-23T09:55:11.237Z,10.30
2017-10-23T10:00:13.915Z,10.30
2017-10-23T10:05:16.561Z,10.30
2017-10-23T10:10:19.359Z,10.30
2017-10-23T10:15:22.002Z,10.40
2017-10-23T10:20:24.567Z,10.40
2017-10-23T10:25:27.159Z,10.40
2017-10-23T10:30:29.776Z,10.50
2017-10-23T10:35:32.364Z,10.60
2017-10-23T10:40:34.999Z,10.60
2017-10-23T10:45:37.666Z,10.70
2017-10-23T10:50:40.236Z,10.70
2017-10-23T10:55:42.860Z,10.70
2017-10-23T11:00:45.453Z,10.80
2017-10-23T11:05:48.132Z,10.90
2017-10-23T11:10:50.749Z,10.90
2017-10-23T11:15:53.376Z,11.00
2017-10-23T11:20:55.990Z,11.10
2017-10-23T11:25:58.657Z,11.10
2017-10-23T11:31:01.320Z,11.20
2017-10-23T11:36:03.999Z,11.20
2017-10-23T11:41:06.601Z,11.20
2017-10-23T11:46:10.812Z,11.20
2017-10-23T11:51:13.868Z,11.20
2017-10-23T14:32:52.611Z,11.20
2017-10-23T14:37:55.220Z,11.20
2017-10-23T14:42:57.871Z,11.20
2017-10-23T14:48:04.110Z,11.20
2017-10-23T14:53:07.074Z,11.20
2017-10-23T14:58:09.935Z,11.10
2017-10-23T15:13:33.085Z,11.10
2017-10-23T15:18:36.280Z,11.00
2017-10-23T15:23:39.619Z,11.00
2017-10-23T15:28:42.189Z,11.00
2017-10-23T15:33:46.432Z,11.00
2017-10-23T15:38:49.055Z,11.00
2017-10-23T15:43:51.673Z,10.90
2017-10-23T15:48:54.298Z,10.90
2017-10-23T15:53:57.145Z,10.90
2017-10-23T15:59:00.079Z,10.90
2017-10-23T16:04:04.466Z,10.90
2017-10-23T16:09:07.124Z,10.80
2017-10-23T16:14:09.695Z,10.80
2017-10-23T16:19:12.319Z,10.80
2017-10-23T16:24:14.978Z,10.80
2017-10-23T16:29:17.542Z,10.70
2017-10-23T16:34:20.145Z,10.70
2017-10-23T16:39:23.556Z,10.70
2017-10-23T16:44:26.164Z,10.60
2017-10-23T16:49:28.746Z,10.60
2017-10-23T16:54:31.354Z,10.60
2017-10-23T16:59:34.021Z,10.60
2017-10-23T17:04:36.616Z,10.60
2017-10-23T17:09:39.243Z,10.60
2017-10-23T17:14:41.798Z,10.60
2017-10-23T17:19:44.441Z,10.50
2017-10-23T17:24:47.031Z,10.50
2017-10-23T17:29:49.631Z,10.50
2017-10-23T17:34:52.242Z,10.50
2017-10-23T17:39:54.848Z,10.40
2017-10-23T17:44:57.540Z,10.40
2017-10-23T17:50:00.219Z,10.40
2017-10-23T17:55:02.909Z,10.40
2017-10-23T18:00:05.521Z,10.40
2017-10-23T18:05:11.716Z,10.30
2017-10-23T18:10:14.557Z,10.30
2017-10-23T18:15:17.150Z,10.30
2017-10-23T18:20:20.647Z,10.20
2017-10-23T18:25:23.315Z,10.20
2017-10-23T18:30:26.036Z,10.20
2017-10-23T18:35:28.773Z,10.20
2017-10-23T18:40:31.467Z,10.20
2017-10-23T18:45:34.129Z,10.10
2017-10-23T18:50:36.826Z,10.10
2017-10-23T18:55:39.494Z,10.10
2017-10-23T19:00:42.210Z,10.00
2017-10-23T19:05:44.952Z,10.00
2017-10-23T19:10:47.582Z,10.00
2017-10-23T19:15:50.347Z,10.00
2017-10-23T19:20:53.028Z,9.90
2017-10-23T19:25:55.811Z,9.90
2017-10-23T19:30:58.538Z,9.90
2017-10-23T19:36:01.325Z,9.90
2017-10-23T19:41:04.760Z,9.80
2017-10-23T19:46:07.405Z,9.80
2017-10-23T19:51:10.091Z,9.80
2017-10-23T19:56:13.700Z,9.80
2017-10-23T20:01:16.356Z,9.80
2017-10-23T20:06:18.937Z,9.80
2017-10-23T20:11:21.583Z,9.80
2017-10-23T20:16:24.205Z,9.80
2017-10-23T20:21:26.900Z,9.70
2017-10-23T20:26:29.457Z,9.70
2017-10-23T20:31:32.113Z,9.70
2017-10-23T20:41:59.121Z,9.70
2017-10-23T20:47:01.696Z,9.70
2017-10-23T20:52:05.078Z,9.70
2017-10-23T20:57:07.678Z,9.70
2017-10-23T21:02:10.236Z,9.70
2017-10-23T21:40:03.740Z,9.60
2017-10-23T22:50:47.995Z,9.50
2017-10-23T22:55:50.736Z,9.50
2017-10-23T23:00:53.692Z,9.60
2017-10-23T23:05:56.247Z,9.60
2017-10-23T23:10:59.584Z,9.50
2017-10-23T23:16:02.228Z,9.50
2017-10-23T23:21:04.865Z,9.60
2017-10-23T23:26:07.428Z,9.60
2017-10-23T23:31:09.995Z,9.60
2017-10-23T23:36:12.591Z,9.60
2017-10-23T23:41:15.169Z,9.60
2017-10-23T23:46:17.773Z,9.60
2017-10-23T23:51:21.114Z,9.60
2017-10-23T23:56:23.691Z,9.60
